createdAt,value
2024-04-30T00:01:33.284Z,96371.91
2024-04-30T00:04:00.159Z,96367.63
2024-04-30T00:06:26.997Z,96369.84
2024-04-30T00:08:54.010Z,96369.03
2024-04-30T00:11:20.767Z,96372.81
2024-04-30T00:13:47.468Z,96370.16
2024-04-30T00:16:14.247Z,96367.56
2024-04-30T00:18:40.869Z,96364.06
2024-04-30T00:21:07.979Z,96367.78
2024-04-30T00:23:34.577Z,96366.53
2024-04-30T00:26:01.792Z,96364.16
2024-04-30T00:28:29.347Z,96361.47
2024-04-30T00:30:56.107Z,96355.75
2024-04-30T00:33:22.716Z,96360.16
2024-04-30T00:35:49.535Z,96358.56
2024-04-30T00:38:16.148Z,96355.16
2024-04-30T00:40:42.860Z,96355.16
2024-04-30T00:43:09.660Z,96354.03
2024-04-30T00:45:36.428Z,96344.97
2024-04-30T00:48:03.549Z,96353.59
2024-04-30T00:50:30.380Z,96355.47
2024-04-30T00:52:58.161Z,96358.44
2024-04-30T00:55:25.603Z,96352.13
2024-04-30T01:00:34.740Z,96356.69
2024-04-30T01:03:01.483Z,96350.25
2024-04-30T01:05:28.434Z,96346.84
2024-04-30T01:07:55.080Z,96349.34
2024-04-30T01:10:21.842Z,96345.72
2024-04-30T01:12:48.730Z,96349.16
2024-04-30T01:15:15.347Z,96354.88
2024-04-30T01:17:42.108Z,96346.50
2024-04-30T01:20:09.151Z,96352.16
2024-04-30T01:22:38.553Z,96351.09
2024-04-30T01:25:06.647Z,96356.97
2024-04-30T01:27:33.293Z,96354.97
2024-04-30T01:29:59.944Z,96346.41
2024-04-30T01:32:26.869Z,96344.06
2024-04-30T01:34:53.559Z,96349.25
2024-04-30T01:37:20.196Z,96360.59
2024-04-30T01:39:46.942Z,96362.19
2024-04-30T01:42:13.563Z,96360.69
2024-04-30T01:44:40.260Z,96356.41
2024-04-30T01:47:06.962Z,96354.91
2024-04-30T01:49:33.734Z,96356.09
2024-04-30T01:52:01.277Z,96340.44
2024-04-30T01:54:30.570Z,96349.28
2024-04-30T01:56:57.551Z,96348.94
2024-04-30T01:59:24.273Z,96342.81
2024-04-30T02:01:51.101Z,96348.84
2024-04-30T02:04:17.910Z,96340.53
2024-04-30T02:06:44.547Z,96350.47
2024-04-30T02:09:11.271Z,96345.78
2024-04-30T02:11:37.965Z,96340.16
2024-04-30T02:14:05.303Z,96335.06
2024-04-30T02:16:32.091Z,96337.81
2024-04-30T02:18:58.903Z,96344.69
2024-04-30T02:21:25.975Z,96344.16
2024-04-30T02:23:52.571Z,96341.22
2024-04-30T02:26:19.220Z,96336.69
2024-04-30T02:28:45.819Z,96331.00
2024-04-30T02:31:31.034Z,96331.88
2024-04-30T02:34:16.509Z,96331.50
2024-04-30T02:36:43.174Z,96325.53
2024-04-30T02:39:09.848Z,96332.22
2024-04-30T02:41:36.465Z,96325.13
2024-04-30T02:44:03.174Z,96327.34
2024-04-30T02:46:31.268Z,96326.47
2024-04-30T02:48:58.313Z,96319.59
2024-04-30T02:51:25.848Z,96317.28
2024-04-30T02:53:52.617Z,96315.28
2024-04-30T02:56:19.244Z,96321.03
2024-04-30T02:58:45.953Z,96322.56
2024-04-30T03:01:14.394Z,96316.59
2024-04-30T03:03:41.795Z,96316.59
2024-04-30T03:06:08.476Z,96321.00
2024-04-30T03:08:38.269Z,96321.00
2024-04-30T03:11:05.383Z,96317.16
2024-04-30T03:13:32.165Z,96311.97
2024-04-30T03:15:58.980Z,96305.75
2024-04-30T03:18:25.968Z,96298.94
2024-04-30T03:20:52.654Z,96304.69
2024-04-30T03:23:19.355Z,96305.81
2024-04-30T03:25:45.954Z,96304.34
2024-04-30T03:28:12.625Z,96308.06
2024-04-30T03:30:39.336Z,96313.69
2024-04-30T03:33:06.152Z,96311.69
2024-04-30T03:35:32.883Z,96311.56
2024-04-30T03:37:59.671Z,96298.75
2024-04-30T03:40:26.379Z,96307.38
2024-04-30T03:42:54.537Z,96305.94
2024-04-30T03:45:21.566Z,96312.44
2024-04-30T03:47:48.505Z,96307.56
2024-04-30T03:50:15.207Z,96310.09
2024-04-30T03:52:41.906Z,96302.91
2024-04-30T03:55:08.705Z,96307.91
2024-04-30T03:57:35.343Z,96304.91
2024-04-30T04:00:02.165Z,96304.91
2024-04-30T04:02:28.905Z,96303.06
2024-04-30T04:04:55.602Z,96301.88
2024-04-30T04:07:22.389Z,96296.88
2024-04-30T04:09:49.082Z,96298.00
2024-04-30T04:12:35.518Z,96302.78
2024-04-30T04:15:02.930Z,96306.19
2024-04-30T04:17:29.751Z,96293.59
2024-04-30T04:19:56.442Z,96303.19
2024-04-30T04:22:23.162Z,96305.19
2024-04-30T04:24:49.968Z,96293.91
2024-04-30T04:27:16.573Z,96300.81
2024-04-30T04:29:43.249Z,96295.44
2024-04-30T04:32:09.907Z,96304.97
2024-04-30T04:34:39.121Z,96314.72
2024-04-30T04:37:05.922Z,96308.81
2024-04-30T04:39:33.282Z,96306.69
2024-04-30T04:42:00.037Z,96311.81
2024-04-30T04:44:26.727Z,96306.66
2024-04-30T04:46:53.540Z,96318.25
2024-04-30T04:49:20.418Z,96305.47
2024-04-30T04:51:47.059Z,96297.19
2024-04-30T04:54:13.805Z,96304.69
2024-04-30T04:56:40.451Z,96310.22
2024-04-30T04:59:07.049Z,96311.47
2024-04-30T05:01:33.738Z,96313.56
2024-04-30T05:04:00.454Z,96308.28
2024-04-30T05:06:27.211Z,96301.84
2024-04-30T05:08:56.049Z,96313.25
2024-04-30T05:11:22.828Z,96310.19
2024-04-30T05:13:49.838Z,96302.56
2024-04-30T05:16:16.573Z,96298.03
2024-04-30T05:18:43.178Z,96310.56
2024-04-30T05:21:10.603Z,96295.69
2024-04-30T05:23:37.262Z,96302.22
2024-04-30T05:26:04.127Z,96301.84
2024-04-30T05:28:30.745Z,96301.16
2024-04-30T05:30:57.702Z,96295.78
2024-04-30T05:33:24.443Z,96298.09
2024-04-30T05:35:51.509Z,96292.91
2024-04-30T05:38:18.172Z,96296.94
2024-04-30T05:40:44.859Z,96290.44
2024-04-30T05:43:12.248Z,96293.59
2024-04-30T05:45:39.016Z,96290.28
2024-04-30T05:48:06.311Z,96290.81
2024-04-30T05:50:32.983Z,96296.66
2024-04-30T05:52:59.661Z,96291.75
2024-04-30T05:55:26.464Z,96299.75
2024-04-30T05:57:55.483Z,96296.38
2024-04-30T06:00:22.367Z,96293.25
2024-04-30T06:02:49.182Z,96283.19
2024-04-30T06:05:17.420Z,96295.94
2024-04-30T06:07:44.173Z,96286.75
2024-04-30T06:10:10.829Z,96289.22
2024-04-30T06:12:37.611Z,96283.63
2024-04-30T06:15:04.628Z,96288.16
2024-04-30T06:17:31.190Z,96286.13
2024-04-30T06:19:57.806Z,96281.47
2024-04-30T06:22:24.437Z,96290.84
2024-04-30T06:24:51.137Z,96291.94
2024-04-30T06:27:17.714Z,96286.06
2024-04-30T06:29:44.311Z,96283.00
2024-04-30T06:32:10.916Z,96290.81
2024-04-30T06:34:38.750Z,96285.97
2024-04-30T06:37:06.779Z,96290.19
2024-04-30T06:39:33.392Z,96286.59
2024-04-30T06:41:59.985Z,96294.53
2024-04-30T06:44:26.680Z,96290.31
2024-04-30T06:46:53.305Z,96289.50
2024-04-30T06:49:21.316Z,96291.19
2024-04-30T06:51:48.866Z,96281.09
2024-04-30T06:54:15.438Z,96290.16
2024-04-30T06:56:42.053Z,96286.81
2024-04-30T06:59:08.682Z,96286.56
2024-04-30T07:01:35.506Z,96284.66
2024-04-30T07:04:02.411Z,96290.09
2024-04-30T07:06:29.111Z,96279.38
2024-04-30T07:08:55.784Z,96286.22
2024-04-30T07:11:22.413Z,96284.50
2024-04-30T07:13:49.084Z,96283.44
2024-04-30T07:16:15.822Z,96287.97
2024-04-30T07:18:42.768Z,96286.91
2024-04-30T07:21:09.463Z,96290.06
2024-04-30T07:23:36.036Z,96292.78
2024-04-30T07:26:02.628Z,96289.78
2024-04-30T07:28:29.343Z,96292.16
2024-04-30T07:30:55.955Z,96291.28
2024-04-30T07:33:22.627Z,96282.56
2024-04-30T07:35:49.248Z,96295.75
2024-04-30T07:38:15.883Z,96292.28
2024-04-30T07:40:42.595Z,96295.94
2024-04-30T07:43:09.233Z,96285.75
2024-04-30T07:45:35.959Z,96287.78
2024-04-30T07:48:02.647Z,96290.09
2024-04-30T07:50:29.383Z,96301.25
2024-04-30T07:52:55.974Z,96296.84
2024-04-30T07:55:22.592Z,96292.91
2024-04-30T07:57:49.226Z,96283.94
2024-04-30T08:00:16.091Z,96291.72
2024-04-30T08:02:42.697Z,96295.63
2024-04-30T08:05:09.343Z,96293.34
2024-04-30T08:07:35.955Z,96293.91
2024-04-30T08:10:04.792Z,96292.97
2024-04-30T08:12:31.516Z,96296.13
2024-04-30T08:14:58.271Z,96300.03
2024-04-30T08:17:25.061Z,96287.75
2024-04-30T08:19:51.795Z,96291.53
2024-04-30T08:22:18.483Z,96291.63
2024-04-30T08:24:45.062Z,96300.78
2024-04-30T08:27:11.672Z,96288.88
2024-04-30T08:29:38.338Z,96290.50
2024-04-30T08:32:05.530Z,96287.78
2024-04-30T08:34:33.179Z,96284.25
2024-04-30T08:37:00.131Z,96288.69
2024-04-30T08:39:26.786Z,96288.09
2024-04-30T08:41:54.666Z,96282.72
2024-04-30T08:44:21.919Z,96287.09
2024-04-30T08:46:49.459Z,96283.34
2024-04-30T08:49:27.786Z,96291.59
2024-04-30T08:52:01.245Z,96287.81
2024-04-30T08:54:31.247Z,96288.47
2024-04-30T08:56:57.867Z,96287.81
2024-04-30T08:59:24.611Z,96291.22
2024-04-30T09:01:53.308Z,96282.72
2024-04-30T09:04:22.291Z,96284.47
2024-04-30T09:06:49.739Z,96281.00
2024-04-30T09:09:16.822Z,96278.50
2024-04-30T09:11:44.251Z,96280.38
2024-04-30T09:14:10.999Z,96273.75
2024-04-30T09:16:48.656Z,96273.56
2024-04-30T09:19:30.340Z,96274.13
2024-04-30T09:22:07.593Z,96266.13
2024-04-30T09:24:34.466Z,96263.75
2024-04-30T09:27:01.149Z,96261.72
2024-04-30T09:29:42.129Z,96263.13
2024-04-30T09:32:14.759Z,96258.06
2024-04-30T09:34:42.452Z,96252.09
2024-04-30T09:37:20.903Z,96250.53
2024-04-30T09:39:49.696Z,96239.44
2024-04-30T09:42:16.802Z,96244.16
2024-04-30T09:44:43.841Z,96228.78
2024-04-30T09:47:10.868Z,96228.03
2024-04-30T09:49:37.657Z,96224.25
2024-04-30T09:52:06.512Z,96227.84
2024-04-30T09:54:37.171Z,96217.78
2024-04-30T09:57:07.398Z,96217.84
2024-04-30T09:59:34.379Z,96219.19
2024-04-30T10:02:07.476Z,96224.44
2024-04-30T10:04:35.967Z,96210.94
2024-04-30T10:07:04.724Z,96208.03
2024-04-30T10:09:32.211Z,96205.06
2024-04-30T10:11:58.938Z,96210.19
2024-04-30T10:14:32.390Z,96205.63
2024-04-30T10:17:02.468Z,96196.66
2024-04-30T10:19:29.266Z,96190.81
2024-04-30T10:21:56.065Z,96198.09
2024-04-30T10:24:24.148Z,96187.13
2024-04-30T10:26:51.947Z,96186.16
2024-04-30T10:29:19.331Z,96186.19
2024-04-30T10:31:49.625Z,96184.69
2024-04-30T10:34:16.846Z,96188.94
2024-04-30T10:36:52.296Z,96179.81
2024-04-30T10:39:28.480Z,96173.06
2024-04-30T10:41:58.319Z,96161.94
2024-04-30T10:44:30.441Z,96168.81
2024-04-30T10:46:57.996Z,96172.63
2024-04-30T10:49:24.697Z,96171.53
2024-04-30T10:51:51.663Z,96176.19
2024-04-30T10:54:18.502Z,96165.78
2024-04-30T10:56:46.215Z,96170.09
2024-04-30T10:59:12.890Z,96157.09
2024-04-30T11:01:39.866Z,96149.25
2024-04-30T11:04:07.061Z,96153.47
2024-04-30T11:06:49.474Z,96146.94
2024-04-30T11:09:16.919Z,96155.00
2024-04-30T11:11:48.062Z,96150.28
2024-04-30T11:14:15.358Z,96146.66
2024-04-30T11:16:44.072Z,96136.44
2024-04-30T11:19:12.903Z,96136.00
2024-04-30T11:21:39.921Z,96126.06
2024-04-30T11:24:07.255Z,96135.03
2024-04-30T11:26:34.318Z,96118.56
2024-04-30T11:29:15.625Z,96118.47
2024-04-30T11:31:47.982Z,96117.63
2024-04-30T11:34:14.627Z,96115.13
2024-04-30T11:36:41.361Z,96108.44
2024-04-30T11:39:12.211Z,96099.44
2024-04-30T11:41:43.558Z,96097.56
2024-04-30T11:44:14.966Z,96099.75
2024-04-30T11:46:41.624Z,96102.44
2024-04-30T11:49:08.392Z,96095.22
2024-04-30T11:51:35.009Z,96096.34
2024-04-30T11:54:01.721Z,96079.00
2024-04-30T11:56:31.620Z,96083.91
2024-04-30T11:58:58.578Z,96086.50
2024-04-30T12:01:25.516Z,96060.44
2024-04-30T12:03:52.224Z,96066.41
2024-04-30T12:06:18.887Z,96064.00
2024-04-30T12:08:46.348Z,96051.78
2024-04-30T12:11:13.115Z,96053.47
2024-04-30T12:13:39.924Z,96053.63
2024-04-30T12:16:06.782Z,96048.66
2024-04-30T12:18:33.563Z,96045.63
2024-04-30T12:21:00.430Z,96048.81
2024-04-30T12:23:27.319Z,96047.00
2024-04-30T12:25:55.271Z,96035.41
2024-04-30T12:28:22.079Z,96031.44
2024-04-30T12:30:48.822Z,96024.59
2024-04-30T12:33:17.078Z,96032.59
2024-04-30T12:35:46.407Z,96025.03
2024-04-30T12:38:14.660Z,96020.56
2024-04-30T12:40:42.222Z,96021.03
2024-04-30T12:43:09.054Z,96007.84
2024-04-30T12:45:35.889Z,96016.69
2024-04-30T12:48:03.237Z,96014.56
2024-04-30T12:50:29.924Z,96013.13
2024-04-30T12:52:56.631Z,96008.94
2024-04-30T12:55:23.295Z,96003.16
2024-04-30T12:57:49.950Z,96001.16
2024-04-30T13:00:16.717Z,95997.72
2024-04-30T13:02:43.412Z,95994.78
2024-04-30T13:05:10.179Z,95986.81
2024-04-30T13:07:36.916Z,95981.75
2024-04-30T13:10:03.623Z,95978.91
2024-04-30T13:12:30.349Z,95959.88
2024-04-30T13:14:56.894Z,95960.34
2024-04-30T13:17:25.379Z,95957.00
2024-04-30T13:19:52.079Z,95951.84
2024-04-30T13:22:19.066Z,95963.25
2024-04-30T13:24:45.705Z,95954.22
2024-04-30T13:27:15.454Z,95949.53
2024-04-30T13:29:43.357Z,95950.00
2024-04-30T13:32:10.044Z,95947.75
2024-04-30T13:34:36.936Z,95945.81
2024-04-30T13:37:03.806Z,95946.50
2024-04-30T13:39:30.499Z,95945.72
2024-04-30T13:41:57.943Z,95943.16
2024-04-30T13:44:24.818Z,95928.09
2024-04-30T13:46:51.477Z,95937.63
2024-04-30T13:49:18.232Z,95925.28
2024-04-30T13:51:45.467Z,95916.69
2024-04-30T13:54:12.250Z,95927.53
2024-04-30T13:56:39.042Z,95921.19
2024-04-30T13:59:08.593Z,95919.91
2024-04-30T14:01:38.927Z,95911.66
2024-04-30T14:04:05.649Z,95916.44
2024-04-30T14:06:32.330Z,95918.59
2024-04-30T14:08:59.075Z,95918.59
2024-04-30T14:11:25.814Z,95920.59
2024-04-30T14:13:53.145Z,95912.03
2024-04-30T14:16:19.798Z,95913.53
2024-04-30T14:18:46.521Z,95898.56
2024-04-30T14:21:13.207Z,95909.19
2024-04-30T14:23:39.872Z,95907.13
2024-04-30T14:26:08.423Z,95904.97
2024-04-30T14:28:35.865Z,95899.31
2024-04-30T14:31:02.458Z,95898.38
2024-04-30T14:33:29.118Z,95892.53
2024-04-30T14:36:14.432Z,95892.66
2024-04-30T14:38:41.053Z,95897.31
2024-04-30T14:41:14.658Z,95882.66
2024-04-30T14:43:41.786Z,95888.03
2024-04-30T14:46:09.086Z,95888.16
2024-04-30T14:48:35.808Z,95865.00
2024-04-30T14:51:02.449Z,95873.72
2024-04-30T14:53:29.142Z,95868.53
2024-04-30T14:55:55.743Z,95869.41
2024-04-30T14:58:22.718Z,95865.56
2024-04-30T15:00:49.349Z,95869.56
2024-04-30T15:03:18.848Z,95859.28
2024-04-30T15:05:45.591Z,95856.72
2024-04-30T15:08:12.298Z,95856.78
2024-04-30T15:10:38.994Z,95858.75
2024-04-30T15:13:06.761Z,95845.50
2024-04-30T15:15:33.585Z,95859.72
2024-04-30T15:18:00.279Z,95862.69
2024-04-30T15:20:27.220Z,95845.44
2024-04-30T15:22:53.983Z,95847.06
2024-04-30T15:25:21.107Z,95840.56
2024-04-30T15:27:49.442Z,95838.53
2024-04-30T15:30:17.421Z,95837.50
2024-04-30T15:32:45.859Z,95834.97
2024-04-30T15:35:20.242Z,95833.16
2024-04-30T15:37:46.898Z,95835.59
2024-04-30T15:40:13.681Z,95845.16
2024-04-30T15:42:40.467Z,95830.84
2024-04-30T15:45:07.519Z,95833.72
2024-04-30T15:47:34.169Z,95825.34
2024-04-30T15:50:00.923Z,95822.22
2024-04-30T15:52:28.079Z,95828.53
2024-04-30T15:54:57.319Z,95833.56
2024-04-30T15:57:24.013Z,95822.06
2024-04-30T15:59:51.064Z,95818.22
2024-04-30T16:02:18.508Z,95819.75
2024-04-30T16:04:45.212Z,95819.53
2024-04-30T16:07:13.342Z,95811.16
2024-04-30T16:09:41.042Z,95813.25
2024-04-30T16:12:07.852Z,95817.66
2024-04-30T16:14:34.482Z,95811.72
2024-04-30T16:17:01.390Z,95807.66
2024-04-30T16:19:29.015Z,95810.81
2024-04-30T16:21:56.006Z,95809.22
2024-04-30T16:24:23.420Z,95800.44
2024-04-30T16:26:50.459Z,95793.47
2024-04-30T16:29:17.132Z,95792.88
2024-04-30T16:31:43.934Z,95785.03
2024-04-30T16:34:10.742Z,95784.88
2024-04-30T16:36:37.590Z,95789.66
2024-04-30T16:39:04.342Z,95784.03
2024-04-30T16:41:31.180Z,95784.69
2024-04-30T16:43:57.914Z,95787.06
2024-04-30T16:46:24.734Z,95785.09
2024-04-30T16:48:53.291Z,95783.31
2024-04-30T16:51:20.430Z,95780.50
2024-04-30T16:53:47.286Z,95779.00
2024-04-30T16:56:16.239Z,95779.22
2024-04-30T16:58:43.881Z,95775.63
2024-04-30T17:01:11.035Z,95781.19
2024-04-30T17:03:43.227Z,95777.91
2024-04-30T17:06:14.308Z,95780.78
2024-04-30T17:08:41.711Z,95778.91
2024-04-30T17:11:11.848Z,95768.31
2024-04-30T17:13:42.500Z,95770.38
2024-04-30T17:16:17.137Z,95771.38
2024-04-30T17:18:44.168Z,95766.13
2024-04-30T17:21:14.953Z,95767.59
2024-04-30T17:23:42.022Z,95766.78
2024-04-30T17:26:09.142Z,95767.50
2024-04-30T17:28:35.830Z,95763.88
2024-04-30T17:31:02.740Z,95762.72
2024-04-30T17:33:29.475Z,95763.84
2024-04-30T19:05:12.485Z,95791.56
2024-04-30T19:15:47.874Z,95793.72
2024-04-30T19:18:18.417Z,95794.34
2024-04-30T19:20:49.534Z,95789.31
2024-04-30T19:23:26.079Z,95796.63
2024-04-30T19:25:56.154Z,95802.53
2024-04-30T19:28:27.436Z,95799.63
2024-04-30T19:30:59.192Z,95797.38
2024-04-30T19:33:28.584Z,95795.25
2024-04-30T19:35:55.924Z,95790.56
2024-04-30T19:38:24.847Z,95790.56
2024-04-30T19:40:52.878Z,95790.31
2024-04-30T19:43:19.826Z,95793.22
2024-04-30T19:45:48.025Z,95791.94
2024-04-30T19:48:17.870Z,95792.38
2024-04-30T19:50:46.303Z,95789.03
2024-04-30T19:53:13.311Z,95793.50
2024-04-30T19:55:41.133Z,95796.56
2024-04-30T19:58:08.205Z,95790.91
2024-04-30T20:00:35.113Z,95799.69
2024-04-30T20:03:02.074Z,95803.63
2024-04-30T20:05:30.370Z,95802.59
2024-04-30T20:08:00.125Z,95803.69
2024-04-30T20:10:35.863Z,95792.91
2024-04-30T20:21:01.670Z,95789.81
2024-04-30T20:23:28.353Z,95791.75
2024-04-30T20:25:55.064Z,95790.75
2024-04-30T20:28:22.592Z,95793.06
2024-04-30T20:30:49.308Z,95787.56
2024-04-30T20:41:23.443Z,95781.03
2024-04-30T20:47:40.941Z,95766.53
2024-04-30T20:50:07.955Z,95768.78
2024-04-30T20:52:34.913Z,95759.50
2024-04-30T20:55:01.663Z,95765.72
2024-04-30T20:57:28.372Z,95759.00
2024-04-30T20:59:55.031Z,95762.44
2024-04-30T21:02:25.211Z,95753.56
2024-04-30T21:04:57.374Z,95763.88
2024-04-30T21:07:24.295Z,95762.38
2024-04-30T21:09:51.084Z,95760.78
2024-04-30T21:12:17.943Z,95758.31
2024-04-30T21:14:44.675Z,95766.97
2024-04-30T21:17:11.353Z,95756.97
2024-04-30T21:19:38.377Z,95757.50
2024-04-30T21:22:05.258Z,95757.41
2024-04-30T21:24:32.092Z,95762.25
2024-04-30T21:26:58.857Z,95756.16
2024-04-30T21:29:26.020Z,95756.22
2024-04-30T21:31:55.676Z,95749.16
2024-04-30T21:34:31.881Z,95754.88
2024-04-30T21:37:05.369Z,95747.19
2024-04-30T21:39:32.320Z,95744.66
2024-04-30T21:42:00.073Z,95747.25
2024-04-30T21:44:26.778Z,95747.13
2024-04-30T21:46:53.497Z,95746.09
2024-04-30T21:49:20.284Z,95743.97
2024-04-30T21:51:47.195Z,95742.31
2024-04-30T21:54:14.384Z,95737.75
2024-04-30T21:56:41.194Z,95737.19
2024-04-30T22:06:57.746Z,95742.00
2024-04-30T22:09:25.162Z,95739.75
2024-04-30T22:11:56.851Z,95737.16
2024-04-30T22:14:23.863Z,95739.16
2024-04-30T22:16:50.499Z,95744.97
2024-04-30T22:19:17.506Z,95750.88
2024-04-30T22:21:47.287Z,95747.75
2024-04-30T22:24:14.187Z,95751.13
2024-04-30T22:26:42.426Z,95751.94
2024-04-30T22:29:11.946Z,95748.09
2024-04-30T22:31:38.657Z,95760.19
2024-04-30T22:34:05.476Z,95757.22
2024-04-30T22:36:32.435Z,95762.19
2024-04-30T22:38:59.147Z,95757.28
2024-04-30T22:41:25.799Z,95766.41
2024-04-30T22:43:52.555Z,95760.50
2024-04-30T22:46:19.272Z,95759.38
2024-04-30T22:48:46.279Z,95760.56
2024-04-30T22:51:17.737Z,95753.72
2024-04-30T22:53:50.677Z,95751.47
2024-04-30T22:56:23.546Z,95754.19
2024-04-30T22:58:50.248Z,95756.97
2024-04-30T23:01:17.097Z,95753.91
2024-04-30T23:03:43.994Z,95758.72
2024-04-30T23:06:11.434Z,95746.66
2024-04-30T23:08:41.125Z,95749.69
2024-04-30T23:11:07.754Z,95749.88
2024-04-30T23:13:34.436Z,95740.75
2024-04-30T23:16:02.982Z,95738.09
2024-04-30T23:18:29.783Z,95743.84
2024-04-30T23:20:56.945Z,95744.59
2024-04-30T23:23:24.900Z,95745.41
2024-04-30T23:25:51.577Z,95749.00
2024-04-30T23:28:18.391Z,95741.22
2024-04-30T23:30:44.997Z,95748.25
2024-04-30T23:33:11.692Z,95740.38
2024-04-30T23:35:38.299Z,95745.63
2024-04-30T23:38:05.055Z,95735.75
2024-04-30T23:40:31.683Z,95742.31
2024-04-30T23:42:58.404Z,95745.31
2024-04-30T23:45:25.058Z,95730.03
2024-04-30T23:47:53.827Z,95736.44
2024-04-30T23:50:22.205Z,95729.59
2024-04-30T23:53:43.225Z,95731.88
2024-04-30T23:59:57.433Z,95733.34
